Accueil
METAR-TAF:

METAR-TAF

Aéroports :

Annecy, France

Aéroport d'Annecy Haute-Savoie Mont-Blanc

latitude: 45-55-45N, longitude: 006-05-56E, altitude: 463 m

Observation

Le bulletin a été fait il y a 32 minutes, à 10:30 UTC
Vent calme
Température 10°C
Humidité 62%
Pression 1017 hPa
Visibilité 10 km ou plus
pas de nuages en-dessous de 1500 mètres et pas de cumulonimbus.

METAR: LFLP 221030Z AUTO 00000KT CAVOK 10/03 Q1017 NOSIG

Heure: 12:02 (11:02 UTC)

Prévision

Le bulletin a été fait il y a 3 heures et 2 minutes, à 08:00 UTC
Prévision valable du 22 à 09 UTC au 23 à 09 UTC
Vent 2 kt de direction variable
Visibilité 10 km ou plus
pas de nuages en-dessous de 1500 mètres et pas de cumulonimbus.
Evoluant progressivement
du 22 à 12 UTC au 22 à 14 UTC
Vent 5 kt de sud-ouest
Temporairement
du 22 à 18 UTC au 22 à 23 UTC
Vent 2 kt de direction variable

TAF: LFLP 220800Z 2209/2309 VRB02KT CAVOK BECMG 2212/2214 22005KT TEMPO 2218/2223 VRB02KT

Observations et prévisions météorologiques de plus de 4000 aéroports (messages METAR et TAF).

Les stations disponibles sont représentées par des disques jaunes et rouges sur la carte.

Passer la souris dessus pour voir le nom de la station.

Cliquer dessus pour voir les observations et prévisions météorologiques.

Pour changer de carte: cliquez sur les boutons verts avec une croix noire pour zoomer, sur le bouton vert avec un tiret pour effectuer un zoom arrière, ou sur les flèches vertes pour les cartes adjacentes.


METAR-TAF: